富士山静岡空港METAR/TAF(約33km東):

RJNS 200800Z 16008KT 9999 FEW020 25/20 Q1005

TAF RJNS 200506Z 2006/2112 20008KT 9999 FEW015 BKN050 BECMG 2008/2010 28006KT TEMPO 2015/2021 4000 BR FEW005 BKN008 BECMG 2100/2103 18010KT BECMG 2106/2109 22004KT

ソアリング用気象予報:
BLIPMAP 中部地方
中部日本航空連盟および大野グライダークラブの支援により運営されているソアリング用気象予報BLIPMAPの中部地方版です。

風向風力(Windy.com):
スマホでの閲覧には、アプリ版Windy(Android/iOS)が適切です。

EGC Icon